sensor_id;sensor_type;location;lat;lon;timestamp;P1;durP1;ratioP1;P2;durP2;ratioP2
6862;SDS011;3470;48.738;9.616;2023-04-25T12:11:40;7.07;;;5.60;;
6862;SDS011;3470;48.738;9.616;2023-04-25T12:14:07;7.37;;;4.90;;
6862;SDS011;3470;48.738;9.616;2023-04-25T12:16:40;5.60;;;3.70;;
6862;SDS011;3470;48.738;9.616;2023-04-25T12:19:06;3.50;;;2.90;;
6862;SDS011;3470;48.738;9.616;2023-04-25T12:21:32;4.10;;;2.77;;
6862;SDS011;3470;48.738;9.616;2023-04-25T12:27:03;3.47;;;3.17;;
6862;SDS011;3470;48.738;9.616;2023-04-25T16:55:03;8.10;;;5.70;;
6862;SDS011;3470;48.738;9.616;2023-04-25T16:57:29;8.67;;;5.93;;
6862;SDS011;3470;48.738;9.616;2023-04-25T16:59:54;6.80;;;5.37;;
6862;SDS011;3470;48.738;9.616;2023-04-25T17:35:40;7.23;;;6.40;;
6862;SDS011;3470;48.738;9.616;2023-04-25T17:38:06;8.73;;;6.30;;
6862;SDS011;3470;48.738;9.616;2023-04-25T17:40:32;9.83;;;5.53;;
6862;SDS011;3470;48.738;9.616;2023-04-25T17:42:58;6.43;;;5.83;;
6862;SDS011;3470;48.738;9.616;2023-04-25T17:45:24;8.20;;;5.80;;
6862;SDS011;3470;48.738;9.616;2023-04-25T17:47:49;5.77;;;4.80;;
6862;SDS011;3470;48.738;9.616;2023-04-25T17:50:15;8.77;;;6.00;;
6862;SDS011;3470;48.738;9.616;2023-04-25T17:52:41;10.53;;;5.43;;
6862;SDS011;3470;48.738;9.616;2023-04-25T17:55:08;11.37;;;6.57;;
6862;SDS011;3470;48.738;9.616;2023-04-25T17:57:34;8.30;;;7.30;;
6862;SDS011;3470;48.738;9.616;2023-04-25T18:00:00;9.10;;;6.90;;
6862;SDS011;3470;48.738;9.616;2023-04-25T18:02:25;15.37;;;9.37;;
6862;SDS011;3470;48.738;9.616;2023-04-25T18:04:51;11.30;;;7.73;;
6862;SDS011;3470;48.738;9.616;2023-04-25T18:07:17;10.00;;;7.83;;
6862;SDS011;3470;48.738;9.616;2023-04-25T18:09:42;7.67;;;6.67;;
6862;SDS011;3470;48.738;9.616;2023-04-25T18:12:08;7.50;;;6.40;;
6862;SDS011;3470;48.738;9.616;2023-04-25T18:14:34;11.27;;;9.90;;
6862;SDS011;3470;48.738;9.616;2023-04-25T18:17:00;12.90;;;7.87;;
6862;SDS011;3470;48.738;9.616;2023-04-25T18:19:28;7.87;;;6.57;;
6862;SDS011;3470;48.738;9.616;2023-04-25T18:21:54;9.70;;;6.93;;
6862;SDS011;3470;48.738;9.616;2023-04-25T18:24:20;12.13;;;7.43;;
6862;SDS011;3470;48.738;9.616;2023-04-25T18:26:47;9.90;;;7.30;;
6862;SDS011;3470;48.738;9.616;2023-04-25T18:29:13;12.53;;;7.87;;
6862;SDS011;3470;48.738;9.616;2023-04-25T18:31:40;9.87;;;7.80;;
6862;SDS011;3470;48.738;9.616;2023-04-25T18:34:06;9.33;;;7.10;;
6862;SDS011;3470;48.738;9.616;2023-04-25T18:36:32;12.60;;;8.10;;
6862;SDS011;3470;48.738;9.616;2023-04-25T18:38:58;10.57;;;8.30;;
6862;SDS011;3470;48.738;9.616;2023-04-25T18:41:27;11.77;;;9.03;;
6862;SDS011;3470;48.738;9.616;2023-04-25T18:43:53;12.53;;;8.83;;
6862;SDS011;3470;48.738;9.616;2023-04-25T18:46:20;10.27;;;8.93;;
6862;SDS011;3470;48.738;9.616;2023-04-25T18:48:50;13.03;;;9.13;;
6862;SDS011;3470;48.738;9.616;2023-04-25T18:51:22;15.03;;;8.93;;
6862;SDS011;3470;48.738;9.616;2023-04-25T18:53:48;9.73;;;8.70;;
6862;SDS011;3470;48.738;9.616;2023-04-25T18:56:14;13.87;;;9.47;;
6862;SDS011;3470;48.738;9.616;2023-04-25T18:58:41;13.10;;;9.17;;
6862;SDS011;3470;48.738;9.616;2023-04-25T19:01:07;10.80;;;8.27;;
6862;SDS011;3470;48.738;9.616;2023-04-25T19:03:36;13.57;;;8.73;;
6862;SDS011;3470;48.738;9.616;2023-04-25T19:06:01;12.07;;;9.13;;
6862;SDS011;3470;48.738;9.616;2023-04-25T19:08:28;9.73;;;7.93;;
6862;SDS011;3470;48.738;9.616;2023-04-25T19:10:54;10.80;;;7.27;;
6862;SDS011;3470;48.738;9.616;2023-04-25T19:13:20;12.23;;;7.43;;
6862;SDS011;3470;48.738;9.616;2023-04-25T19:15:46;11.37;;;7.03;;
6862;SDS011;3470;48.738;9.616;2023-04-25T19:18:12;13.90;;;8.00;;
6862;SDS011;3470;48.738;9.616;2023-04-25T19:20:41;9.10;;;7.47;;
6862;SDS011;3470;48.738;9.616;2023-04-25T19:23:07;9.33;;;6.30;;
6862;SDS011;3470;48.738;9.616;2023-04-25T19:25:34;7.40;;;6.20;;
6862;SDS011;3470;48.738;9.616;2023-04-25T19:28:00;8.37;;;7.43;;
6862;SDS011;3470;48.738;9.616;2023-04-25T19:30:26;10.73;;;7.63;;
6862;SDS011;3470;48.738;9.616;2023-04-25T19:32:56;10.57;;;8.67;;
6862;SDS011;3470;48.738;9.616;2023-04-25T19:35:21;10.57;;;7.93;;
6862;SDS011;3470;48.738;9.616;2023-04-25T19:37:47;11.13;;;8.33;;
6862;SDS011;3470;48.738;9.616;2023-04-25T19:40:13;11.30;;;7.70;;
6862;SDS011;3470;48.738;9.616;2023-04-25T19:42:40;11.57;;;7.50;;
6862;SDS011;3470;48.738;9.616;2023-04-25T19:45:06;12.87;;;8.27;;
6862;SDS011;3470;48.738;9.616;2023-04-25T19:47:33;12.67;;;8.80;;
6862;SDS011;3470;48.738;9.616;2023-04-25T19:50:02;12.87;;;8.60;;
6862;SDS011;3470;48.738;9.616;2023-04-25T19:52:28;13.73;;;8.90;;
6862;SDS011;3470;48.738;9.616;2023-04-25T19:54:55;12.77;;;9.27;;
6862;SDS011;3470;48.738;9.616;2023-04-25T19:57:26;10.93;;;8.63;;
6862;SDS011;3470;48.738;9.616;2023-04-25T19:59:56;9.57;;;8.57;;
6862;SDS011;3470;48.738;9.616;2023-04-25T20:02:25;11.30;;;8.20;;
6862;SDS011;3470;48.738;9.616;2023-04-25T20:04:51;9.30;;;8.30;;
6862;SDS011;3470;48.738;9.616;2023-04-25T20:07:17;9.67;;;8.00;;
6862;SDS011;3470;48.738;9.616;2023-04-25T20:09:45;9.13;;;8.17;;
6862;SDS011;3470;48.738;9.616;2023-04-25T20:12:11;11.10;;;8.17;;
6862;SDS011;3470;48.738;9.616;2023-04-25T20:14:37;12.80;;;8.37;;
6862;SDS011;3470;48.738;9.616;2023-04-25T20:17:03;9.17;;;7.90;;
